Time;durP1;ratioP1;P1;durP2;ratioP2;P2;SDS_P1;SDS_P2;PMS_P1;PMS_P2;Temp;Humidity;BMP_temperature;BMP_pressure;BME280_temperature;BME280_humidity;BME280_pressure;Samples;Min_cycle;Max_cycle;Signal;HPM_P1;HPM_P2
2023/01/18 00:01:49;;;;;;;7.35;1.85;;;;;;;7.79;81.81;99850.25;12677864;23;96649;-81
2023/01/18 00:06:52;;;;;;;6.47;2.15;;;;;;;7.77;82.12;99852.09;12677264;23;96534;-81
2023/01/18 00:11:56;;;;;;;7.75;2.13;;;;;;;7.80;81.50;99865.06;12676385;23;96554;-81
2023/01/18 00:17:00;;;;;;;9.48;2.47;;;;;;;7.85;81.44;99855.28;12675737;23;97093;-81
2023/01/18 00:22:04;;;;;;;9.77;1.97;;;;;;;7.94;81.20;99862.84;12677079;23;97181;-81
2023/01/18 00:27:09;;;;;;;12.85;2.88;;;;;;;7.98;80.98;99893.22;12677149;23;96786;-81
2023/01/18 00:32:15;;;;;;;9.77;1.83;;;;;;;8.04;80.87;99915.75;12676299;23;96565;-81
2023/01/18 00:37:18;;;;;;;9.43;2.50;;;;;;;8.17;80.96;99911.81;12676874;23;96456;-81
2023/01/18 00:47:44;;;;;;;7.05;2.30;;;;;;;8.16;80.52;99878.63;12676685;23;96561;-82
2023/01/18 00:52:48;;;;;;;11.15;2.67;;;;;;;8.12;80.50;99864.78;12677459;23;96555;-81
2023/01/18 00:57:51;;;;;;;8.65;1.90;;;;;;;8.05;80.81;99854.59;12676704;23;96602;-81
2023/01/18 01:02:57;;;;;;;5.68;1.90;;;;;;;8.06;80.99;99864.16;12676332;23;96590;-81
2023/01/18 01:08:00;;;;;;;9.23;2.00;;;;;;;8.12;81.39;99872.66;12675336;23;97264;-81
2023/01/18 01:29:07;;;;;;;12.13;2.15;;;;;;;7.86;81.87;99880.56;12675902;22;97139;-82
2023/01/18 01:34:12;;;;;;;7.47;1.65;;;;;;;7.83;82.01;99884.16;12676318;23;96509;-82
2023/01/18 01:39:15;;;;;;;7.50;2.08;;;;;;;7.82;82.16;99881.59;12675703;23;97193;-81
2023/01/18 01:44:48;;;;;;;7.20;1.92;;;;;;;7.87;81.70;99871.81;12677071;23;96906;-81
2023/01/18 01:49:58;;;;;;;9.40;1.80;;;;;;;7.77;81.40;99896.63;12676060;23;96540;-82
2023/01/18 01:55:07;;;;;;;9.43;2.20;;;;;;;7.60;82.39;99941.69;12676056;23;97271;-81
2023/01/18 02:00:13;;;;;;;8.85;2.05;;;;;;;7.55;82.54;99927.03;12674694;23;96644;-81
2023/01/18 02:05:18;;;;;;;7.40;1.98;;;;;;;7.39;82.38;99926.66;12676109;23;96663;-83
2023/01/18 02:10:22;;;;;;;5.03;2.00;;;;;;;7.43;82.20;99930.03;12675507;23;96531;-82
2023/01/18 02:15:32;;;;;;;6.45;1.75;;;;;;;7.40;81.68;99940.59;12675730;23;96597;-82
2023/01/18 02:21:15;;;;;;;6.25;2.10;;;;;;;7.33;82.08;99921.63;12676016;23;96750;-81
2023/01/18 02:26:48;;;;;;;7.97;2.20;;;;;;;7.19;82.72;99926.44;12675943;23;96501;-81
2023/01/18 02:32:07;;;;;;;9.95;2.15;;;;;;;7.17;82.04;99924.75;12637666;23;96819;-81
2023/01/18 02:37:20;;;;;;;8.77;2.22;;;;;;;7.18;81.93;99921.25;12615212;23;96902;-81
2023/01/18 02:47:49;;;;;;;7.82;2.22;;;;;;;7.08;82.71;99923.28;12613955;23;96698;-81
2023/01/18 02:52:52;;;;;;;;;;;;;;;7.04;82.88;99902.53;12612198;23;96541;-81
2023/01/18 02:58:04;;;;;;;8.57;2.03;;;;;;;7.13;82.71;99923.16;12613757;23;97134;-81
2023/01/18 03:03:11;;;;;;;9.82;2.10;;;;;;;7.21;82.17;99973.50;12613487;23;96556;-81
2023/01/18 03:08:21;;;;;;;7.72;1.80;;;;;;;7.13;82.80;99992.03;12616467;23;96641;-82
2023/01/18 03:13:35;;;;;;;6.30;2.05;;;;;;;7.12;83.21;100006.03;12615694;23;96580;-80
2023/01/18 03:19:00;;;;;;;5.60;1.75;;;;;;;7.24;83.00;99994.31;12616142;23;96676;-82
2023/01/18 03:24:07;;;;;;;8.33;2.00;;;;;;;7.37;82.76;99991.28;12615806;23;96571;-82
2023/01/18 03:34:44;;;;;;;11.73;2.20;;;;;;;7.35;82.86;99997.47;12615507;23;96657;-82
2023/01/18 03:39:52;;;;;;;5.20;1.52;;;;;;;7.40;83.27;99972.88;12615636;23;97158;-81
2023/01/18 03:44:59;;;;;;;6.53;1.50;;;;;;;7.44;82.94;99978.88;12614352;23;97512;-82
2023/01/18 03:50:04;;;;;;;6.82;1.85;;;;;;;7.48;82.69;99983.09;12615756;23;96527;-82
2023/01/18 03:55:11;;;;;;;6.55;1.45;;;;;;;7.51;82.91;99991.72;12615233;23;96584;-82
2023/01/18 04:00:16;;;;;;;8.52;2.13;;;;;;;7.36;82.50;99981.72;12615180;23;96613;-82
2023/01/18 04:05:21;;;;;;;9.45;1.90;;;;;;;7.46;82.25;100004.09;12615553;23;97164;-81
2023/01/18 04:10:25;;;;;;;7.93;1.80;;;;;;;7.50;81.84;100010.09;12614993;23;97077;-80
2023/01/18 04:15:28;;;;;;;4.40;1.40;;;;;;;7.43;82.53;100001.56;12615036;23;96552;-80
2023/01/18 04:20:33;;;;;;;7.03;1.45;;;;;;;7.52;82.29;99997.81;12616064;23;97371;-80
2023/01/18 04:25:37;;;;;;;5.83;1.70;;;;;;;7.61;82.02;100001.00;12615248;23;96874;-80
2023/01/18 04:30:40;;;;;;;8.52;2.30;;;;;;;7.64;81.67;100002.66;12637699;23;96818;-80
2023/01/18 04:35:44;;;;;;;9.45;1.73;;;;;;;7.55;82.46;100016.91;12675682;23;97310;-80
2023/01/18 04:40:48;;;;;;;10.47;1.60;;;;;;;7.46;82.78;100027.66;12676634;23;96868;-80
2023/01/18 04:45:55;;;;;;;5.97;1.92;;;;;;;7.44;82.14;100031.25;12676662;23;96523;-80
2023/01/18 04:50:59;;;;;;;8.23;1.70;;;;;;;7.34;82.86;100048.97;12676487;23;96605;-80
2023/01/18 04:56:02;;;;;;;6.87;1.77;;;;;;;7.30;82.22;100054.34;12676223;23;96556;-80
2023/01/18 05:01:10;;;;;;;6.10;1.70;;;;;;;7.20;82.88;100051.13;12676455;23;96610;-80
2023/01/18 05:06:18;;;;;;;9.25;1.80;;;;;;;7.29;83.07;100070.94;12676614;23;96582;-80
2023/01/18 05:11:22;;;;;;;6.53;1.70;;;;;;;7.35;83.39;100094.31;12676994;23;96465;-81
2023/01/18 05:16:26;;;;;;;6.88;1.63;;;;;;;7.40;83.21;100090.69;12676402;23;96812;-81
2023/01/18 05:21:30;;;;;;;9.20;2.15;;;;;;;7.35;84.09;100094.31;12676073;23;96829;-82
2023/01/18 05:26:33;;;;;;;9.23;1.67;;;;;;;7.16;84.50;100096.63;12674471;23;96528;-82
2023/01/18 05:31:37;;;;;;;11.63;2.38;;;;;;;7.14;84.74;100102.78;12675940;23;96569;-82
2023/01/18 05:36:41;;;;;;;7.88;1.65;;;;;;;7.10;84.44;100111.59;12677018;23;96893;-81
2023/01/18 05:41:44;;;;;;;11.00;1.70;;;;;;;7.03;83.78;100131.84;12675929;23;96794;-81
2023/01/18 05:46:48;;;;;;;5.53;1.30;;;;;;;7.10;83.23;100143.00;12676261;23;96635;-81
2023/01/18 05:51:52;;;;;;;6.20;1.45;;;;;;;7.05;83.27;100151.00;12675922;23;96785;-81
2023/01/18 05:56:55;;;;;;;7.67;1.33;;;;;;;7.08;82.58;100165.75;12676389;23;96910;-80
2023/01/18 06:01:58;;;;;;;4.50;1.15;;;;;;;7.05;83.39;100181.50;12677196;23;96582;-80
2023/01/18 06:07:03;;;;;;;7.85;1.10;;;;;;;7.05;82.48;100210.28;12676657;23;96794;-80
2023/01/18 06:12:07;;;;;;;5.00;1.40;;;;;;;7.11;82.85;100207.53;12675467;23;96772;-80
2023/01/18 06:17:10;;;;;;;4.55;1.40;;;;;;;7.16;82.78;100208.25;12674666;23;97322;-80
2023/01/18 06:22:15;;;;;;;6.40;1.23;;;;;;;7.13;83.79;100206.56;12675614;23;96749;-80
2023/01/18 06:27:18;;;;;;;5.68;1.23;;;;;;;7.08;83.48;100208.44;12675779;23;96602;-80
2023/01/18 06:32:22;;;;;;;5.25;1.40;;;;;;;7.02;83.58;100224.34;12675460;23;96783;-80
2023/01/18 06:37:26;;;;;;;4.35;1.02;;;;;;;7.02;83.67;100237.41;12675600;23;97252;-79
2023/01/18 06:42:30;;;;;;;7.53;1.30;;;;;;;7.03;83.15;100239.13;12674613;23;96625;-80
2023/01/18 06:47:33;;;;;;;5.70;1.10;;;;;;;7.01;82.69;100238.28;12675406;23;96572;-80
2023/01/18 06:52:38;;;;;;;6.43;1.05;;;;;;;6.99;83.17;100247.09;12676049;23;97006;-80
2023/01/18 06:57:41;;;;;;;7.10;1.27;;;;;;;6.94;82.97;100244.56;12674647;23;96526;-80
2023/01/18 07:02:44;;;;;;;3.78;1.10;;;;;;;6.82;83.24;100255.31;12674914;23;96547;-80
2023/01/18 07:07:49;;;;;;;5.00;0.85;;;;;;;6.83;82.62;100255.28;12673785;23;97120;-80
2023/01/18 07:12:52;;;;;;;3.93;0.97;;;;;;;6.86;83.29;100275.28;12674638;23;96686;-80
2023/01/18 07:17:55;;;;;;;7.28;1.15;;;;;;;6.89;82.85;100279.63;12674972;23;96620;-80
2023/01/18 07:23:01;;;;;;;4.63;0.90;;;;;;;6.90;83.36;100295.25;12674628;23;96648;-80
2023/01/18 07:28:04;;;;;;;5.35;0.90;;;;;;;6.83;83.50;100296.31;12674535;23;96540;-80
2023/01/18 07:33:08;;;;;;;7.00;1.30;;;;;;;6.84;83.44;100311.09;12674226;23;96593;-80
2023/01/18 07:38:12;;;;;;;4.70;1.38;;;;;;;6.82;83.79;100332.06;12674292;23;96539;-80
2023/01/18 07:43:17;;;;;;;6.60;1.40;;;;;;;6.80;83.49;100327.72;12674961;23;97156;-80
2023/01/18 07:48:20;;;;;;;4.87;1.10;;;;;;;6.70;83.79;100339.28;12673377;23;96625;-80
2023/01/18 07:53:26;;;;;;;4.43;1.10;;;;;;;6.78;83.40;100353.91;12676452;23;97150;-80
2023/01/18 07:58:29;;;;;;;5.88;1.20;;;;;;;6.90;83.81;100365.00;12675769;23;96599;-80
2023/01/18 08:03:33;;;;;;;5.85;1.20;;;;;;;6.93;83.84;100373.66;12676844;23;96603;-80
2023/01/18 08:08:37;;;;;;;3.10;1.10;;;;;;;6.99;83.26;100381.34;12676403;23;97365;-80
2023/01/18 08:13:41;;;;;;;4.50;1.00;;;;;;;7.00;83.46;100390.94;12676512;23;97162;-80
2023/01/18 08:18:44;;;;;;;6.15;1.17;;;;;;;7.08;83.51;100391.59;12677012;23;96625;-81
2023/01/18 08:23:52;;;;;;;5.72;1.40;;;;;;;6.91;83.73;100400.72;12676786;23;96644;-80
2023/01/18 08:28:55;;;;;;;5.70;1.35;;;;;;;6.97;83.59;100406.69;12675261;23;96629;-80
2023/01/18 08:33:59;;;;;;;1.95;0.70;;;;;;;7.01;84.03;100408.34;12616150;23;96550;-80
2023/01/18 08:39:03;;;;;;;8.90;1.20;;;;;;;7.10;83.63;100422.97;12615090;23;96863;-80
2023/01/18 08:44:06;;;;;;;2.50;1.43;;;;;;;7.13;83.91;100422.91;12615064;23;96747;-80
2023/01/18 08:49:10;;;;;;;4.50;1.33;;;;;;;7.33;83.64;100436.38;12613903;23;96987;-80
2023/01/18 08:54:15;;;;;;;2.95;1.10;;;;;;;7.33;83.32;100452.09;12615290;23;96544;-80
2023/01/18 08:59:19;;;;;;;3.97;0.90;;;;;;;7.41;83.36;100461.47;12614628;23;96929;-80
2023/01/18 09:04:22;;;;;;;3.55;1.15;;;;;;;7.68;83.18;100462.59;12614576;23;96689;-80
2023/01/18 09:09:27;;;;;;;4.68;1.30;;;;;;;7.59;83.05;100488.97;12614506;23;96874;-80
2023/01/18 09:14:30;;;;;;;5.20;1.30;;;;;;;7.66;82.31;100487.94;12614854;23;97077;-80
2023/01/18 09:19:33;;;;;;;3.38;1.13;;;;;;;7.69;82.86;100493.09;12614870;23;96598;-80
2023/01/18 09:24:38;;;;;;;4.80;1.60;;;;;;;7.72;82.10;100517.47;12615525;23;96770;-80
2023/01/18 09:29:41;;;;;;;3.47;1.37;;;;;;;7.85;82.52;100520.66;12614286;23;96872;-80
2023/01/18 09:34:45;;;;;;;4.07;1.70;;;;;;;7.93;82.51;100537.91;12614589;23;96573;-80
2023/01/18 09:39:50;;;;;;;4.57;1.80;;;;;;;8.05;82.29;100534.09;12613889;23;96588;-81
2023/01/18 09:44:59;;;;;;;6.35;1.80;;;;;;;8.23;81.74;100541.53;12614387;23;96561;-80
2023/01/18 09:50:09;;;;;;;6.57;1.90;;;;;;;8.28;81.72;100547.50;12614518;23;96533;-80
2023/01/18 09:55:22;;;;;;;6.43;1.50;;;;;;;8.51;81.33;100550.41;12614569;23;96537;-80
2023/01/18 10:00:28;;;;;;;3.60;1.45;;;;;;;8.61;81.12;100565.00;12614688;23;97323;-80
2023/01/18 10:05:36;;;;;;;3.00;1.30;;;;;;;8.75;80.67;100562.84;12614155;23;96609;-80
2023/01/18 10:10:50;;;;;;;3.38;1.50;;;;;;;9.01;80.86;100568.25;12613892;23;96745;-81
2023/01/18 10:15:53;;;;;;;7.72;1.88;;;;;;;9.10;80.46;100570.59;12614435;23;96728;-81
2023/01/18 10:21:01;;;;;;;7.05;1.95;;;;;;;9.18;80.49;100583.50;12614319;23;96827;-81
2023/01/18 10:26:09;;;;;;;4.32;2.00;;;;;;;9.02;78.77;100580.44;12614166;23;96590;-81
2023/01/18 10:31:34;;;;;;;6.75;4.43;;;;;;;8.94;78.21;100577.19;12641881;22;96527;-81
2023/01/18 10:36:42;;;;;;;5.50;2.90;;;;;;;9.25;78.15;100584.22;12675747;23;96961;-81
2023/01/18 10:41:47;;;;;;;8.68;2.63;;;;;;;9.04;76.20;100585.66;12674932;23;96811;-81
2023/01/18 10:46:56;;;;;;;5.37;1.77;;;;;;;9.12;75.07;100594.19;12674914;23;96626;-81
2023/01/18 10:52:17;;;;;;;2.45;1.10;;;;;;;9.10;74.04;100611.75;12675378;23;96548;-80
2023/01/18 10:57:26;;;;;;;5.63;1.73;;;;;;;9.10;73.19;100619.63;12675621;23;96652;-80
2023/01/18 11:02:34;;;;;;;4.40;1.83;;;;;;;9.21;74.35;100619.31;12674998;23;96561;-80
2023/01/18 11:07:37;;;;;;;5.57;1.80;;;;;;;9.28;74.00;100634.03;12675416;23;96677;-80
2023/01/18 11:12:47;;;;;;;4.95;1.52;;;;;;;9.46;72.43;100644.00;12674490;23;96608;-81
2023/01/18 11:18:13;;;;;;;3.47;1.42;;;;;;;9.56;70.25;100640.19;12674967;23;97437;-80
2023/01/18 11:23:24;;;;;;;2.63;1.45;;;;;;;9.95;71.51;100633.75;12673713;23;97055;-81
2023/01/18 11:28:35;;;;;;;4.40;1.50;;;;;;;10.15;70.35;100640.09;12676691;23;96889;-81
2023/01/18 11:33:48;;;;;;;4.32;1.67;;;;;;;10.28;70.47;100635.31;12677073;23;96651;-81
2023/01/18 11:38:51;;;;;;;3.10;1.77;;;;;;;10.45;69.83;100643.53;12677040;23;96741;-81
2023/01/18 11:44:06;;;;;;;6.80;3.40;;;;;;;10.31;68.82;100644.88;12677325;23;96557;-81
2023/01/18 11:49:21;;;;;;;5.97;2.08;;;;;;;10.27;68.97;100639.72;12677001;23;97808;-80
2023/01/18 11:54:30;;;;;;;8.80;2.47;;;;;;;10.15;69.90;100653.25;12677360;23;96942;-80
2023/01/18 11:59:37;;;;;;;5.22;2.63;;;;;;;9.78;70.87;100639.50;12678290;23;96631;-80
2023/01/18 12:04:57;;;;;;;7.43;2.65;;;;;;;10.11;70.73;100629.72;12676873;23;96648;-80
2023/01/18 12:10:01;;;;;;;8.63;2.88;;;;;;;10.37;70.33;100640.25;12676510;23;97128;-80
2023/01/18 12:15:19;;;;;;;5.33;2.30;;;;;;;10.16;69.25;100615.50;12675928;23;96901;-80
2023/01/18 12:20:29;;;;;;;5.10;2.15;;;;;;;10.48;68.76;100617.09;12677071;23;96679;-80
2023/01/18 12:25:49;;;;;;;8.85;3.85;;;;;;;10.54;68.62;100623.94;12676652;23;96732;-80
2023/01/18 12:31:18;;;;;;;5.00;2.22;;;;;;;10.51;68.57;100638.03;12676688;23;96524;-81
2023/01/18 12:36:51;;;;;;;5.57;1.33;;;;;;;10.61;66.82;100631.56;12676378;23;96611;-81
2023/01/18 12:42:00;;;;;;;7.97;2.25;;;;;;;10.72;67.48;100636.47;12676289;23;96595;-81
2023/01/18 12:47:21;;;;;;;4.78;1.63;;;;;;;10.76;66.70;100625.78;12676812;23;96491;-81
2023/01/18 12:52:25;;;;;;;4.10;1.70;;;;;;;10.81;66.02;100622.97;12677532;23;97033;-81
2023/01/18 12:57:29;;;;;;;4.53;1.60;;;;;;;10.89;66.42;100624.44;12676551;23;96892;-81
2023/01/18 13:02:38;;;;;;;3.03;1.30;;;;;;;10.85;65.73;100620.19;12676775;23;96639;-81
2023/01/18 13:07:46;;;;;;;3.97;1.70;;;;;;;10.75;64.81;100612.69;12675232;23;96681;-81
2023/01/18 13:12:50;;;;;;;2.75;1.40;;;;;;;10.83;65.54;100615.91;12676120;23;96729;-81
2023/01/18 13:18:05;;;;;;;4.40;1.77;;;;;;;10.65;64.70;100625.28;12676315;23;96661;-81
2023/01/18 13:23:21;;;;;;;4.07;1.60;;;;;;;11.05;65.37;100620.34;12676568;23;96670;-81
2023/01/18 13:28:26;;;;;;;2.80;1.67;;;;;;;10.91;65.55;100630.50;12676100;23;96536;-81
2023/01/18 13:33:33;;;;;;;5.63;1.88;;;;;;;10.90;65.21;100620.91;12675766;23;96670;-81
2023/01/18 13:38:39;;;;;;;3.83;1.88;;;;;;;11.43;63.78;100600.53;12675910;23;97431;-81
2023/01/18 13:44:01;;;;;;;3.13;1.45;;;;;;;12.32;59.00;100602.28;12677181;23;96581;-81
2023/01/18 13:49:31;;;;;;;4.15;1.95;;;;;;;13.00;58.11;100587.00;12675813;23;96572;-81
2023/01/18 13:55:04;;;;;;;3.90;1.70;;;;;;;12.86;59.72;100633.44;12676185;23;96634;-81
2023/01/18 14:00:23;;;;;;;3.65;1.52;;;;;;;12.59;62.45;100635.44;12674942;23;96687;-81
2023/01/18 14:05:36;;;;;;;4.97;1.80;;;;;;;12.97;60.73;100621.47;12675852;23;96969;-81
2023/01/18 14:10:47;;;;;;;4.38;1.63;;;;;;;12.64;60.95;100614.09;12675000;23;96625;-81
2023/01/18 14:15:53;;;;;;;5.70;1.60;;;;;;;12.32;62.01;100621.56;12675920;23;96597;-81
2023/01/18 14:21:24;;;;;;;5.80;1.80;;;;;;;11.69;62.71;100618.88;12675318;23;96763;-81
2023/01/18 14:26:30;;;;;;;4.10;1.60;;;;;;;11.14;63.72;100613.94;12675749;23;96817;-81
2023/01/18 14:31:37;;;;;;;4.75;2.08;;;;;;;11.04;62.98;100610.72;12675550;23;96609;-81
2023/01/18 14:36:42;;;;;;;5.47;2.20;;;;;;;11.08;64.44;100619.38;12676959;23;96550;-81
2023/01/18 14:41:49;;;;;;;3.35;2.28;;;;;;;11.00;65.91;100651.25;12675255;23;96838;-81
2023/01/18 14:46:56;;;;;;;7.50;2.45;;;;;;;10.26;67.92;100703.72;12675680;23;96707;-81
2023/01/18 14:52:01;;;;;;;4.63;1.83;;;;;;;9.33;71.67;100697.78;12674218;23;97015;-82
2023/01/18 14:57:07;;;;;;;3.70;1.25;;;;;;;9.66;71.44;100686.31;12675246;23;96539;-82
2023/01/18 15:02:17;;;;;;;3.00;1.33;;;;;;;11.47;67.92;100685.63;12676856;23;96766;-82
2023/01/18 15:07:30;;;;;;;5.22;1.50;;;;;;;11.15;70.43;100685.00;12678016;23;96831;-82
2023/01/18 15:12:34;;;;;;;4.25;1.70;;;;;;;10.73;72.17;100702.19;12677198;23;96625;-81
2023/01/18 15:17:37;;;;;;;3.65;1.80;;;;;;;10.33;73.00;100720.19;12677182;23;96597;-81
2023/01/18 15:22:43;;;;;;;3.30;1.63;;;;;;;10.31;72.83;100724.66;12677459;23;96675;-81
2023/01/18 15:27:51;;;;;;;3.40;1.88;;;;;;;11.26;70.31;100714.47;12678365;23;96559;-81
2023/01/18 15:32:57;;;;;;;4.47;2.00;;;;;;;11.30;70.32;100709.94;12677127;23;96631;-80
2023/01/18 15:38:03;;;;;;;3.85;1.70;;;;;;;11.33;69.97;100708.06;12677648;23;96596;-80
2023/01/18 15:43:16;;;;;;;3.40;1.75;;;;;;;12.68;67.95;100706.38;12675835;23;97210;-81
2023/01/18 15:48:20;;;;;;;4.68;1.83;;;;;;;13.11;67.21;100703.66;12677131;23;96610;-81
2023/01/18 15:53:30;;;;;;;4.10;1.90;;;;;;;12.94;67.35;100716.72;12677279;23;96569;-81
2023/01/18 15:58:36;;;;;;;4.13;1.85;;;;;;;12.68;65.69;100713.44;12677379;23;97170;-81
2023/01/18 16:03:41;;;;;;;3.10;1.40;;;;;;;12.74;64.67;100718.47;12677199;23;97210;-81
2023/01/18 16:09:00;;;;;;;4.72;1.48;;;;;;;12.85;62.76;100740.00;12676166;23;96965;-81
2023/01/18 16:14:11;;;;;;;3.50;1.70;;;;;;;12.93;63.68;100741.41;12677135;23;96999;-81
2023/01/18 16:19:23;;;;;;;2.95;1.42;;;;;;;12.74;61.87;100758.91;12678019;23;96844;-81
2023/01/18 16:24:36;;;;;;;5.25;1.90;;;;;;;12.48;62.26;100761.69;12676855;23;96526;-81
2023/01/18 16:29:43;;;;;;;4.60;1.70;;;;;;;12.26;64.05;100761.69;12676420;23;97197;-81
2023/01/18 16:34:47;;;;;;;3.15;1.48;;;;;;;11.85;65.40;100779.97;12675624;23;96584;-81
2023/01/18 16:39:53;;;;;;;7.90;1.67;;;;;;;11.29;65.94;100788.09;12676315;23;97200;-81
2023/01/18 16:44:56;;;;;;;7.53;2.33;;;;;;;10.89;67.43;100792.94;12676978;23;96701;-81
2023/01/18 16:49:59;;;;;;;6.25;2.03;;;;;;;10.66;67.62;100794.59;12676575;23;96674;-81
2023/01/18 16:55:04;;;;;;;5.70;1.95;;;;;;;10.30;68.33;100807.06;12676541;23;96691;-80
2023/01/18 17:00:16;;;;;;;6.20;2.20;;;;;;;10.22;68.89;100814.34;12676548;23;96600;-80
2023/01/18 17:05:19;;;;;;;4.50;2.08;;;;;;;10.02;69.65;100838.56;12676564;23;96655;-80
2023/01/18 17:10:29;;;;;;;5.85;2.38;;;;;;;9.88;69.02;100863.53;12677200;23;96882;-80
2023/01/18 17:15:33;;;;;;;7.85;2.22;;;;;;;9.89;68.47;100862.63;12676462;23;96584;-80
2023/01/18 17:20:36;;;;;;;6.75;2.40;;;;;;;9.65;70.81;100850.13;12676675;23;96482;-80
2023/01/18 17:25:41;;;;;;;7.97;3.17;;;;;;;9.47;70.81;100858.47;12674978;23;96751;-80
2023/01/18 17:30:47;;;;;;;10.05;3.95;;;;;;;9.24;72.26;100866.09;12675636;23;96728;-80
2023/01/18 17:35:52;;;;;;;10.80;4.65;;;;;;;9.21;72.30;100868.75;12676602;23;96845;-80
2023/01/18 17:40:57;;;;;;;10.60;4.05;;;;;;;9.00;74.00;100888.47;12676378;23;96771;-80
2023/01/18 17:46:02;;;;;;;6.88;3.10;;;;;;;8.81;74.17;100893.28;12676222;23;96595;-80
2023/01/18 17:51:07;;;;;;;5.35;2.55;;;;;;;8.79;73.24;100900.31;12676242;23;96528;-80
2023/01/18 17:56:13;;;;;;;5.50;2.42;;;;;;;8.69;73.29;100916.31;12669725;23;96583;-80
2023/01/18 18:01:17;;;;;;;6.47;2.72;;;;;;;8.67;73.07;100926.00;12670455;23;96675;-80
2023/01/18 18:06:21;;;;;;;7.40;2.90;;;;;;;8.60;73.07;100930.47;12669494;23;97487;-80
2023/01/18 18:11:34;;;;;;;8.60;2.50;;;;;;;8.63;72.36;100932.19;12669285;23;96633;-80
2023/01/18 18:16:38;;;;;;;4.00;2.27;;;;;;;8.59;72.00;100947.13;12667933;23;96722;-80
2023/01/18 18:21:45;;;;;;;5.53;3.20;;;;;;;8.52;72.55;100957.75;12669336;23;96629;-80
2023/01/18 18:26:50;;;;;;;7.78;2.95;;;;;;;8.45;72.88;100966.66;12669377;23;96556;-80
2023/01/18 18:31:53;;;;;;;;;;;;;;;8.34;73.60;100979.97;12668517;22;96644;-80
2023/01/18 18:36:56;;;;;;;9.13;3.38;;;;;;;8.31;73.75;100995.75;12668665;23;96570;-80
2023/01/18 18:42:01;;;;;;;12.65;4.20;;;;;;;8.22;74.34;101006.41;12668751;23;96594;-80
2023/01/18 18:47:04;;;;;;;7.63;3.90;;;;;;;8.07;75.22;101008.44;12668856;23;96694;-80
2023/01/18 18:52:09;;;;;;;12.48;6.90;;;;;;;7.95;76.57;101012.16;12669985;23;97749;-80
2023/01/18 18:57:14;;;;;;;12.15;5.35;;;;;;;7.91;76.34;101027.06;12668498;23;96903;-80
2023/01/18 19:02:17;;;;;;;11.23;5.57;;;;;;;7.87;76.16;101029.75;12668762;23;96581;-80
2023/01/18 19:07:20;;;;;;;10.93;5.28;;;;;;;7.93;75.58;101035.75;12667496;23;96968;-80
2023/01/18 19:12:25;;;;;;;18.83;9.23;;;;;;;7.83;76.58;101038.56;12668041;23;96870;-80
2023/01/18 19:17:28;;;;;;;17.97;10.20;;;;;;;7.88;76.55;101048.06;12668056;23;96602;-80
2023/01/18 19:22:33;;;;;;;21.63;11.43;;;;;;;7.88;76.67;101061.16;12668343;23;96611;-80
2023/01/18 19:27:37;;;;;;;15.93;9.57;;;;;;;7.70;77.00;101057.97;12668548;23;97080;-80
2023/01/18 19:32:40;;;;;;;17.57;8.63;;;;;;;7.70;77.13;101071.09;12667787;23;96724;-80
2023/01/18 19:37:45;;;;;;;14.32;7.45;;;;;;;7.42;77.76;101062.75;12667919;23;96532;-80
2023/01/18 19:42:54;;;;;;;15.55;8.35;;;;;;;7.32;78.28;101079.44;12668785;23;97137;-80
2023/01/18 19:47:59;;;;;;;12.65;7.07;;;;;;;7.28;78.37;101090.88;12668606;23;96537;-80
2023/01/18 19:53:02;;;;;;;10.63;7.15;;;;;;;7.20;78.22;101094.47;12670660;23;96670;-80
2023/01/18 19:58:08;;;;;;;16.92;8.35;;;;;;;7.14;78.35;101091.91;12669593;23;96840;-80
2023/01/18 20:03:13;;;;;;;15.07;7.18;;;;;;;6.95;79.02;101096.50;12669560;23;96533;-80
2023/01/18 20:08:16;;;;;;;12.15;6.30;;;;;;;6.81;79.80;101087.91;12670546;23;96608;-80
2023/01/18 20:13:21;;;;;;;11.63;6.22;;;;;;;7.11;78.84;101094.59;12670314;23;96594;-80
2023/01/18 20:18:24;;;;;;;14.73;9.32;;;;;;;7.18;79.07;101093.63;12669899;23;96662;-80
2023/01/18 20:23:27;;;;;;;13.75;7.90;;;;;;;6.95;79.09;101096.50;12670188;23;97066;-80
2023/01/18 20:28:34;;;;;;;17.42;9.45;;;;;;;7.11;78.46;101112.91;12670214;23;96566;-80
2023/01/18 20:33:38;;;;;;;12.15;8.85;;;;;;;7.14;78.35;101121.59;12671090;23;96582;-80
2023/01/18 20:38:41;;;;;;;11.60;8.45;;;;;;;7.00;79.30;101130.47;12669842;23;96618;-80
2023/01/18 20:43:46;;;;;;;15.02;8.85;;;;;;;6.89;79.37;101143.66;12670196;23;96676;-80
2023/01/18 20:48:49;;;;;;;12.90;8.17;;;;;;;6.61;79.48;101156.09;12668566;23;96477;-80
2023/01/18 20:53:52;;;;;;;18.08;9.07;;;;;;;6.64;79.81;101169.16;12669330;23;96563;-80
2023/01/18 20:58:57;;;;;;;16.35;7.75;;;;;;;6.74;79.51;101169.94;12669950;23;96869;-80
2023/01/18 21:04:02;;;;;;;13.52;7.82;;;;;;;6.79;79.53;101171.66;12670703;23;96745;-80
2023/01/18 21:09:05;;;;;;;16.23;8.88;;;;;;;6.76;79.43;101182.13;12669738;23;97102;-80
2023/01/18 21:14:10;;;;;;;13.57;7.50;;;;;;;6.51;79.91;101193.69;12669807;23;96920;-80
2023/01/18 21:19:13;;;;;;;15.73;8.47;;;;;;;6.35;79.71;101193.84;12670215;23;97045;-80
2023/01/18 21:24:16;;;;;;;15.27;8.95;;;;;;;6.47;80.47;101197.19;12670891;23;96585;-80
2023/01/18 21:29:21;;;;;;;14.82;9.05;;;;;;;6.42;80.17;101204.22;12669152;23;96637;-79
2023/01/18 21:34:24;;;;;;;17.30;10.07;;;;;;;6.36;79.71;101214.72;12670135;23;96935;-80
2023/01/18 21:39:27;;;;;;;19.20;9.27;;;;;;;6.26;79.98;101212.19;12668391;23;96704;-80
2023/01/18 21:55:21;;;;;;;15.07;9.35;;;;;;;6.49;80.65;101218.97;12613710;23;98407;-80
2023/01/18 22:00:25;;;;;;;17.95;10.13;;;;;;;6.56;80.17;101223.28;12669362;23;96623;-79
2023/01/18 22:05:29;;;;;;;18.33;11.07;;;;;;;6.67;80.63;101233.66;12668619;23;96585;-80
2023/01/18 22:10:32;;;;;;;27.90;12.18;;;;;;;6.72;80.18;101232.72;12668219;23;96571;-80
2023/01/18 22:15:36;;;;;;;15.55;10.07;;;;;;;6.74;80.59;101240.56;12669516;23;96555;-79
2023/01/18 22:20:39;;;;;;;17.17;9.40;;;;;;;6.68;80.74;101251.94;12668763;23;96609;-80
2023/01/18 22:25:42;;;;;;;13.70;8.75;;;;;;;6.53;80.76;101254.69;12669308;23;96600;-80
2023/01/18 22:30:47;;;;;;;14.00;7.78;;;;;;;6.14;81.25;101270.63;12667786;23;96683;-80
2023/01/18 22:35:57;;;;;;;12.15;8.07;;;;;;;6.13;81.28;101268.88;12669120;23;96721;-80
2023/01/18 22:41:04;;;;;;;16.52;8.32;;;;;;;6.15;80.87;101272.34;12668808;23;96559;-79
2023/01/18 22:46:10;;;;;;;12.43;7.78;;;;;;;6.13;80.36;101271.50;12668972;23;96628;-80
2023/01/18 22:51:16;;;;;;;18.48;9.00;;;;;;;6.01;80.95;101274.16;12668866;23;96760;-79
2023/01/18 22:56:20;;;;;;;12.77;8.45;;;;;;;6.39;80.54;101268.72;12668821;23;96612;-79
2023/01/18 23:01:28;;;;;;;12.53;8.23;;;;;;;6.57;80.44;101271.22;12669054;23;96662;-79
2023/01/18 23:06:40;;;;;;;16.25;10.80;;;;;;;6.56;80.22;101275.56;12669595;23;96550;-80
2023/01/18 23:11:46;;;;;;;62.78;14.30;;;;;;;6.68;80.34;101271.97;12667277;23;96857;-80
2023/01/18 23:22:12;;;;;;;82.13;14.65;;;;;;;6.63;80.76;101287.72;12667891;23;96587;-79
2023/01/18 23:27:15;;;;;;;89.32;14.95;;;;;;;6.66;81.11;101284.22;12670940;23;96562;-79
2023/01/18 23:32:25;;;;;;;52.83;15.25;;;;;;;6.67;80.76;101291.19;12670494;23;96658;-80
2023/01/18 23:37:28;;;;;;;64.57;14.68;;;;;;;6.74;81.32;101275.44;12670937;23;96620;-80
2023/01/18 23:58:35;;;;;;;53.47;13.32;;;;;;;6.35;81.65;101280.09;12671765;23;96699;-79
